Terminal Aerodrome Forecast
Issued by NWS Melbourne, FL

Home | Current Version | Previous Version | Text Only | Print | Product List | Glossary On
Versions: 1 2 3 4 5 6 7 8 9 10 11 12 13 14 15 16 17 18 19 20 21 22 23 24 25 26 27 28 29 30 31
000
FTUS42 KMLB 072240 AAC
TAFMCO
TAF AMD
KMCO 072240Z 0723/0818 18004KT P6SM -RA SCT045 BKN100 OVC150
     FM080100 14003KT P6SM SCT050 SCT150 BKN250
     FM081400 15007KT P6SM SCT030 BKN250=

USA.gov is the U.S. government's official web portal to all federal, state and local government web resources and services.